sensor_id;sensor_type;location;lat;lon;timestamp;pressure;altitude;pressure_sealevel;temperature;humidity
16664;BME280;8445;51.270;9.434;2024-03-08T00:01:21;99917.31;;;0.47;67.81
16664;BME280;8445;51.270;9.434;2024-03-08T00:03:47;99944.25;;;0.61;67.36
16664;BME280;8445;51.270;9.434;2024-03-08T00:06:13;99941.63;;;0.61;67.56
16664;BME280;8445;51.270;9.434;2024-03-08T00:08:39;99940.19;;;0.56;67.81
16664;BME280;8445;51.270;9.434;2024-03-08T00:11:05;99912.91;;;0.48;67.86
16664;BME280;8445;51.270;9.434;2024-03-08T00:13:31;99919.81;;;0.49;67.86
16664;BME280;8445;51.270;9.434;2024-03-08T00:15:57;99935.44;;;0.62;68.71
16664;BME280;8445;51.270;9.434;2024-03-08T00:18:23;99931.88;;;0.63;68.78
16664;BME280;8445;51.270;9.434;2024-03-08T00:20:49;99932.56;;;0.65;68.58
16664;BME280;8445;51.270;9.434;2024-03-08T00:23:15;99927.22;;;0.66;68.52
16664;BME280;8445;51.270;9.434;2024-03-08T00:25:41;99930.66;;;0.67;68.23
16664;BME280;8445;51.270;9.434;2024-03-08T00:28:07;99926.38;;;0.66;68.58
16664;BME280;8445;51.270;9.434;2024-03-08T00:30:33;99906.97;;;0.57;68.41
16664;BME280;8445;51.270;9.434;2024-03-08T00:32:59;99901.00;;;0.55;68.67
16664;BME280;8445;51.270;9.434;2024-03-08T00:35:25;99891.81;;;0.49;68.75
16664;BME280;8445;51.270;9.434;2024-03-08T00:37:52;99908.28;;;0.63;68.61
16664;BME280;8445;51.270;9.434;2024-03-08T00:40:18;99890.16;;;0.59;68.57
16664;BME280;8445;51.270;9.434;2024-03-08T00:42:44;99907.06;;;0.67;68.35
16664;BME280;8445;51.270;9.434;2024-03-08T00:45:11;99903.75;;;0.65;68.31
16664;BME280;8445;51.270;9.434;2024-03-08T00:47:37;99908.41;;;0.61;68.06
16664;BME280;8445;51.270;9.434;2024-03-08T00:50:03;99907.56;;;0.61;68.18
16664;BME280;8445;51.270;9.434;2024-03-08T00:52:29;99888.25;;;0.50;68.14
16664;BME280;8445;51.270;9.434;2024-03-08T00:54:56;99897.75;;;0.51;67.85
16664;BME280;8445;51.270;9.434;2024-03-08T00:57:22;99874.28;;;0.39;68.12
16664;BME280;8445;51.270;9.434;2024-03-08T00:59:48;99900.75;;;0.47;67.89
16664;BME280;8445;51.270;9.434;2024-03-08T01:02:14;99893.97;;;0.44;67.99
16664;BME280;8445;51.270;9.434;2024-03-08T01:04:40;99865.69;;;0.25;67.96
16664;BME280;8445;51.270;9.434;2024-03-08T01:07:06;99883.44;;;0.33;67.51
16664;BME280;8445;51.270;9.434;2024-03-08T01:09:32;99875.31;;;0.25;67.85
16664;BME280;8445;51.270;9.434;2024-03-08T01:11:58;99863.78;;;0.16;67.99
16664;BME280;8445;51.270;9.434;2024-03-08T01:14:24;99870.56;;;0.19;67.46
16664;BME280;8445;51.270;9.434;2024-03-08T01:16:57;99851.38;;;0.07;67.99
16664;BME280;8445;51.270;9.434;2024-03-08T01:19:22;99860.66;;;0.11;68.31
16664;BME280;8445;51.270;9.434;2024-03-08T01:21:49;99863.06;;;0.14;68.25
16664;BME280;8445;51.270;9.434;2024-03-08T01:24:15;99863.91;;;0.15;68.19
16664;BME280;8445;51.270;9.434;2024-03-08T01:26:41;99843.88;;;0.03;68.63
16664;BME280;8445;51.270;9.434;2024-03-08T01:29:07;99868.31;;;0.14;69.17
16664;BME280;8445;51.270;9.434;2024-03-08T01:31:35;99862.09;;;0.15;69.52
16664;BME280;8445;51.270;9.434;2024-03-08T01:34:02;99853.41;;;0.15;69.35
16664;BME280;8445;51.270;9.434;2024-03-08T01:36:28;99844.81;;;0.13;68.89
16664;BME280;8445;51.270;9.434;2024-03-08T01:38:54;99852.69;;;0.13;69.02
16664;BME280;8445;51.270;9.434;2024-03-08T01:41:20;99847.44;;;0.13;69.07
16664;BME280;8445;51.270;9.434;2024-03-08T01:43:46;99812.16;;;-0.06;69.33
16664;BME280;8445;51.270;9.434;2024-03-08T01:46:17;99826.47;;;0.02;69.83
16664;BME280;8445;51.270;9.434;2024-03-08T01:48:43;99838.03;;;0.10;69.39
16664;BME280;8445;51.270;9.434;2024-03-08T01:51:10;99816.97;;;0.01;69.08
16664;BME280;8445;51.270;9.434;2024-03-08T01:53:38;99830.19;;;0.10;69.25
16664;BME280;8445;51.270;9.434;2024-03-08T01:56:05;99817.69;;;0.03;69.76
16664;BME280;8445;51.270;9.434;2024-03-08T01:58:32;99818.63;;;0.13;70.15
16664;BME280;8445;51.270;9.434;2024-03-08T02:01:00;99820.91;;;0.17;70.18
16664;BME280;8445;51.270;9.434;2024-03-08T02:03:26;99817.94;;;0.22;70.05
16664;BME280;8445;51.270;9.434;2024-03-08T02:05:52;99810.09;;;0.22;69.64
16664;BME280;8445;51.270;9.434;2024-03-08T02:08:19;99815.19;;;0.23;69.49
16664;BME280;8445;51.270;9.434;2024-03-08T02:10:48;99790.56;;;0.15;69.39
16664;BME280;8445;51.270;9.434;2024-03-08T02:13:15;99806.50;;;0.23;69.59
16664;BME280;8445;51.270;9.434;2024-03-08T02:16:04;99802.47;;;0.19;69.36
16664;BME280;8445;51.270;9.434;2024-03-08T02:18:31;99800.91;;;0.16;68.94
16664;BME280;8445;51.270;9.434;2024-03-08T02:21:02;99793.91;;;0.17;69.17
16664;BME280;8445;51.270;9.434;2024-03-08T02:23:28;99783.41;;;0.06;69.40
16664;BME280;8445;51.270;9.434;2024-03-08T02:25:57;99780.19;;;0.02;69.10
16664;BME280;8445;51.270;9.434;2024-03-08T02:28:24;99773.03;;;0.04;69.19
16664;BME280;8445;51.270;9.434;2024-03-08T02:30:53;99789.09;;;0.11;69.08
16664;BME280;8445;51.270;9.434;2024-03-08T02:33:23;99789.34;;;0.08;69.17
16664;BME280;8445;51.270;9.434;2024-03-08T02:35:50;99789.47;;;0.06;69.21
16664;BME280;8445;51.270;9.434;2024-03-08T02:38:22;99772.66;;;-0.03;68.97
16664;BME280;8445;51.270;9.434;2024-03-08T02:40:52;99778.72;;;-0.02;69.66
16664;BME280;8445;51.270;9.434;2024-03-08T02:43:20;99766.25;;;-0.10;69.86
16664;BME280;8445;51.270;9.434;2024-03-08T02:45:48;99761.00;;;-0.10;69.61
16664;BME280;8445;51.270;9.434;2024-03-08T02:48:15;99770.03;;;-0.03;69.55
16664;BME280;8445;51.270;9.434;2024-03-08T02:50:42;99772.91;;;-0.06;69.76
16664;BME280;8445;51.270;9.434;2024-03-08T02:53:08;99770.03;;;-0.03;69.83
16664;BME280;8445;51.270;9.434;2024-03-08T02:55:35;99768.38;;;-0.04;70.15
16664;BME280;8445;51.270;9.434;2024-03-08T02:58:03;99747.66;;;-0.18;70.07
16664;BME280;8445;51.270;9.434;2024-03-08T03:00:29;99762.06;;;-0.12;70.13
16664;BME280;8445;51.270;9.434;2024-03-08T03:02:59;99764.34;;;-0.08;69.95
16664;BME280;8445;51.270;9.434;2024-03-08T03:05:29;99764.09;;;-0.05;70.59
16664;BME280;8445;51.270;9.434;2024-03-08T03:07:56;99763.25;;;-0.05;70.37
16664;BME280;8445;51.270;9.434;2024-03-08T03:10:24;99756.25;;;-0.05;69.81
16664;BME280;8445;51.270;9.434;2024-03-08T03:12:50;99738.59;;;-0.14;70.25
16664;BME280;8445;51.270;9.434;2024-03-08T03:15:17;99737.69;;;-0.13;70.47
16664;BME280;8445;51.270;9.434;2024-03-08T03:17:50;99752.56;;;-0.02;70.44
16664;BME280;8445;51.270;9.434;2024-03-08T03:20:18;99743.16;;;-0.05;70.59
16664;BME280;8445;51.270;9.434;2024-03-08T03:22:52;99741.25;;;-0.03;70.47
16664;BME280;8445;51.270;9.434;2024-03-08T03:25:20;99722.69;;;-0.11;70.58
16664;BME280;8445;51.270;9.434;2024-03-08T03:27:55;99732.91;;;-0.08;70.87
16664;BME280;8445;51.270;9.434;2024-03-08T03:30:24;99740.78;;;0.04;70.79
16664;BME280;8445;51.270;9.434;2024-03-08T03:32:53;99747.44;;;0.08;70.15
16664;BME280;8445;51.270;9.434;2024-03-08T03:35:21;99724.59;;;-0.02;70.38
16664;BME280;8445;51.270;9.434;2024-03-08T03:37:48;99750.78;;;0.10;70.13
16664;BME280;8445;51.270;9.434;2024-03-08T03:40:29;99751.75;;;0.09;70.03
16664;BME280;8445;51.270;9.434;2024-03-08T03:42:57;99748.16;;;0.10;70.40
16664;BME280;8445;51.270;9.434;2024-03-08T03:45:26;99711.63;;;-0.03;70.49
16664;BME280;8445;51.270;9.434;2024-03-08T03:47:52;99725.78;;;0.06;69.99
16664;BME280;8445;51.270;9.434;2024-03-08T03:50:19;99734.25;;;0.09;70.39
16664;BME280;8445;51.270;9.434;2024-03-08T03:52:46;99727.59;;;0.05;70.00
16664;BME280;8445;51.270;9.434;2024-03-08T03:55:13;99715.19;;;-0.04;69.80
16664;BME280;8445;51.270;9.434;2024-03-08T03:57:40;99735.56;;;0.04;69.53
16664;BME280;8445;51.270;9.434;2024-03-08T04:00:07;99722.09;;;-0.03;69.67
16664;BME280;8445;51.270;9.434;2024-03-08T04:02:39;99724.34;;;-0.10;69.85
16664;BME280;8445;51.270;9.434;2024-03-08T04:05:07;99724.59;;;-0.13;69.86
16664;BME280;8445;51.270;9.434;2024-03-08T04:07:35;99711.25;;;-0.21;69.41
16664;BME280;8445;51.270;9.434;2024-03-08T04:10:06;99721.13;;;-0.24;69.71
16664;BME280;8445;51.270;9.434;2024-03-08T04:12:33;99725.66;;;-0.26;70.57
16664;BME280;8445;51.270;9.434;2024-03-08T04:14:59;99718.84;;;-0.29;70.52
16664;BME280;8445;51.270;9.434;2024-03-08T04:17:25;99705.84;;;-0.42;70.62
16664;BME280;8445;51.270;9.434;2024-03-08T04:19:52;99723.47;;;-0.33;70.53
16664;BME280;8445;51.270;9.434;2024-03-08T04:22:18;99701.78;;;-0.46;70.56
16664;BME280;8445;51.270;9.434;2024-03-08T04:24:45;99715.88;;;-0.36;71.17
16664;BME280;8445;51.270;9.434;2024-03-08T04:27:12;99705.84;;;-0.42;70.81
16664;BME280;8445;51.270;9.434;2024-03-08T04:29:38;99710.13;;;-0.41;71.56
16664;BME280;8445;51.270;9.434;2024-03-08T04:32:05;99704.53;;;-0.47;71.34
16664;BME280;8445;51.270;9.434;2024-03-08T04:34:32;99708.56;;;-0.43;71.24
16664;BME280;8445;51.270;9.434;2024-03-08T04:37:01;99697.63;;;-0.48;70.87
16664;BME280;8445;51.270;9.434;2024-03-08T04:39:27;99701.91;;;-0.47;71.30
16664;BME280;8445;51.270;9.434;2024-03-08T04:41:57;99697.88;;;-0.51;71.61
16664;BME280;8445;51.270;9.434;2024-03-08T04:44:24;99677.88;;;-0.64;71.48
16664;BME280;8445;51.270;9.434;2024-03-08T04:46:50;99685.94;;;-0.55;71.68
16664;BME280;8445;51.270;9.434;2024-03-08T04:49:16;99697.41;;;-0.45;72.05
16664;BME280;8445;51.270;9.434;2024-03-08T04:51:42;99688.84;;;-0.47;71.62
16664;BME280;8445;51.270;9.434;2024-03-08T04:54:10;99688.13;;;-0.49;72.22
16664;BME280;8445;51.270;9.434;2024-03-08T04:56:36;99690.25;;;-0.43;72.17
16664;BME280;8445;51.270;9.434;2024-03-08T04:59:02;99683.97;;;-0.52;71.76
16664;BME280;8445;51.270;9.434;2024-03-08T05:01:28;99676.09;;;-0.63;71.85
16664;BME280;8445;51.270;9.434;2024-03-08T05:03:54;99684.91;;;-0.53;71.72
16664;BME280;8445;51.270;9.434;2024-03-08T05:06:21;99692.84;;;-0.54;71.84
16664;BME280;8445;51.270;9.434;2024-03-08T05:08:47;99672.00;;;-0.67;71.67
16664;BME280;8445;51.270;9.434;2024-03-08T05:11:13;99660.22;;;-0.73;71.91
16664;BME280;8445;51.270;9.434;2024-03-08T05:13:41;99666.41;;;-0.74;71.92
16664;BME280;8445;51.270;9.434;2024-03-08T05:16:07;99685.09;;;-0.67;71.90
16664;BME280;8445;51.270;9.434;2024-03-08T05:18:34;99660.91;;;-0.82;71.31
16664;BME280;8445;51.270;9.434;2024-03-08T05:21:01;99672.13;;;-0.80;71.25
16664;BME280;8445;51.270;9.434;2024-03-08T05:23:30;99671.50;;;-0.83;71.26
16664;BME280;8445;51.270;9.434;2024-03-08T05:25:56;99653.06;;;-0.93;72.00
16664;BME280;8445;51.270;9.434;2024-03-08T05:28:23;99659.00;;;-0.91;72.28
16664;BME280;8445;51.270;9.434;2024-03-08T05:30:48;99689.94;;;-0.74;72.25
16664;BME280;8445;51.270;9.434;2024-03-08T05:33:14;99663.75;;;-0.85;71.83
16664;BME280;8445;51.270;9.434;2024-03-08T05:35:40;99657.69;;;-0.85;72.29
16664;BME280;8445;51.270;9.434;2024-03-08T05:38:06;99664.47;;;-0.83;72.17
16664;BME280;8445;51.270;9.434;2024-03-08T05:40:32;99679.38;;;-0.72;72.33
16664;BME280;8445;51.270;9.434;2024-03-08T05:42:59;99644.97;;;-0.90;72.59
16664;BME280;8445;51.270;9.434;2024-03-08T05:45:25;99667.81;;;-0.81;72.41
16664;BME280;8445;51.270;9.434;2024-03-08T05:47:52;99674.97;;;-0.72;72.18
16664;BME280;8445;51.270;9.434;2024-03-08T05:50:18;99676.75;;;-0.72;72.20
16664;BME280;8445;51.270;9.434;2024-03-08T05:52:45;99685.56;;;-0.73;71.97
16664;BME280;8445;51.270;9.434;2024-03-08T05:55:13;99676.88;;;-0.74;72.84
16664;BME280;8445;51.270;9.434;2024-03-08T05:57:41;99662.56;;;-0.81;71.92
16664;BME280;8445;51.270;9.434;2024-03-08T06:00:09;99663.75;;;-0.85;71.83
16664;BME280;8445;51.270;9.434;2024-03-08T06:02:41;99673.78;;;-0.79;71.74
16664;BME280;8445;51.270;9.434;2024-03-08T06:05:10;99676.03;;;-0.74;71.87
16664;BME280;8445;51.270;9.434;2024-03-08T06:07:37;99647.09;;;-0.95;71.48
16664;BME280;8445;51.270;9.434;2024-03-08T06:10:10;99677.72;;;-0.73;71.26
16664;BME280;8445;51.270;9.434;2024-03-08T06:12:45;99666.53;;;-0.75;71.40
16664;BME280;8445;51.270;9.434;2024-03-08T06:15:11;99666.66;;;-0.77;71.59
16664;BME280;8445;51.270;9.434;2024-03-08T06:17:43;99675.50;;;-0.67;71.39
16664;BME280;8445;51.270;9.434;2024-03-08T06:20:09;99681.91;;;-0.60;71.80
16664;BME280;8445;51.270;9.434;2024-03-08T06:22:39;99681.56;;;-0.55;72.56
16664;BME280;8445;51.270;9.434;2024-03-08T06:25:13;99676.94;;;-0.51;72.49
16664;BME280;8445;51.270;9.434;2024-03-08T06:27:43;99682.28;;;-0.42;72.22
16664;BME280;8445;51.270;9.434;2024-03-08T06:30:10;99660.78;;;-0.45;72.02
16664;BME280;8445;51.270;9.434;2024-03-08T06:32:36;99673.03;;;-0.35;71.53
16664;BME280;8445;51.270;9.434;2024-03-08T06:35:06;99677.59;;;-0.25;71.74
16664;BME280;8445;51.270;9.434;2024-03-08T06:37:33;99661.25;;;-0.29;71.72
16664;BME280;8445;51.270;9.434;2024-03-08T06:40:00;99672.47;;;-0.16;71.74
16664;BME280;8445;51.270;9.434;2024-03-08T06:42:29;99672.97;;;-0.11;71.88
16664;BME280;8445;51.270;9.434;2024-03-08T06:44:59;99662.59;;;-0.12;72.69
16664;BME280;8445;51.270;9.434;2024-03-08T06:47:31;99681.28;;;0.06;72.40
16664;BME280;8445;51.270;9.434;2024-03-08T06:49:57;99673.06;;;0.10;72.39
16664;BME280;8445;51.270;9.434;2024-03-08T06:52:23;99660.09;;;0.09;72.29
16664;BME280;8445;51.270;9.434;2024-03-08T06:54:51;99655.34;;;0.14;72.11
16664;BME280;8445;51.270;9.434;2024-03-08T06:57:18;99662.47;;;0.23;72.61
16664;BME280;8445;51.270;9.434;2024-03-08T06:59:48;99678.63;;;0.39;72.46
16664;BME280;8445;51.270;9.434;2024-03-08T07:02:14;99686.47;;;0.50;72.54
16664;BME280;8445;51.270;9.434;2024-03-08T07:04:41;99668.25;;;0.49;72.18
16664;BME280;8445;51.270;9.434;2024-03-08T07:07:07;99683.38;;;0.68;72.12
16664;BME280;8445;51.270;9.434;2024-03-08T07:09:36;99682.84;;;0.74;72.30
16664;BME280;8445;51.270;9.434;2024-03-08T07:12:02;99683.78;;;0.84;71.79
16664;BME280;8445;51.270;9.434;2024-03-08T07:14:28;99683.03;;;0.93;71.92
16664;BME280;8445;51.270;9.434;2024-03-08T07:16:54;99678.25;;;0.98;71.74
16664;BME280;8445;51.270;9.434;2024-03-08T07:19:21;99686.31;;;1.06;71.92
16664;BME280;8445;51.270;9.434;2024-03-08T07:21:50;99682.25;;;1.13;71.71
16664;BME280;8445;51.270;9.434;2024-03-08T07:24:16;99686.63;;;1.24;71.48
16664;BME280;8445;51.270;9.434;2024-03-08T07:27:05;99685.00;;;1.33;71.27
16664;BME280;8445;51.270;9.434;2024-03-08T07:29:34;99666.63;;;1.33;71.23
16664;BME280;8445;51.270;9.434;2024-03-08T07:32:00;99670.63;;;1.48;70.80
16664;BME280;8445;51.270;9.434;2024-03-08T07:34:26;99681.31;;;1.56;70.90
16664;BME280;8445;51.270;9.434;2024-03-08T07:36:53;99647.19;;;1.56;70.67
16664;BME280;8445;51.270;9.434;2024-03-08T07:39:18;99646.22;;;1.57;70.11
16664;BME280;8445;51.270;9.434;2024-03-08T07:41:45;99666.94;;;1.81;70.17
16664;BME280;8445;51.270;9.434;2024-03-08T07:44:11;99676.53;;;1.92;70.17
16664;BME280;8445;51.270;9.434;2024-03-08T07:46:38;99666.34;;;1.98;70.10
16664;BME280;8445;51.270;9.434;2024-03-08T07:49:04;99660.09;;;1.99;nan
16664;BME280;8445;51.270;9.434;2024-03-08T07:51:30;99665.88;;;2.14;69.80
16664;BME280;8445;51.270;9.434;2024-03-08T07:53:56;99656.63;;;2.20;69.56
16664;BME280;8445;51.270;9.434;2024-03-08T07:56:22;99661.06;;;2.29;69.38
16664;BME280;8445;51.270;9.434;2024-03-08T07:58:48;99668.28;;;2.36;69.46
16664;BME280;8445;51.270;9.434;2024-03-08T08:01:18;99664.28;;;2.42;68.85
16664;BME280;8445;51.270;9.434;2024-03-08T08:03:45;99655.84;;;2.48;68.91
16664;BME280;8445;51.270;9.434;2024-03-08T08:06:12;99638.56;;;2.46;68.94
16664;BME280;8445;51.270;9.434;2024-03-08T08:08:44;99657.28;;;2.62;69.06
16664;BME280;8445;51.270;9.434;2024-03-08T08:11:11;99636.94;;;2.64;68.48
16664;BME280;8445;51.270;9.434;2024-03-08T08:13:42;99649.13;;;2.75;68.62
16664;BME280;8445;51.270;9.434;2024-03-08T08:16:09;99640.56;;;2.82;68.52
16664;BME280;8445;51.270;9.434;2024-03-08T08:18:36;99645.13;;;2.90;68.39
16664;BME280;8445;51.270;9.434;2024-03-08T08:21:02;99625.34;;;2.86;68.27
16664;BME280;8445;51.270;9.434;2024-03-08T08:23:30;99617.00;;;2.90;67.86
16664;BME280;8445;51.270;9.434;2024-03-08T08:25:56;99620.47;;;3.01;67.75
16664;BME280;8445;51.270;9.434;2024-03-08T08:28:22;99609.81;;;3.02;67.66
16664;BME280;8445;51.270;9.434;2024-03-08T08:30:48;99630.03;;;3.21;67.27
16664;BME280;8445;51.270;9.434;2024-03-08T08:33:15;99617.41;;;3.24;67.45
16664;BME280;8445;51.270;9.434;2024-03-08T08:35:41;99621.41;;;3.38;67.50
16664;BME280;8445;51.270;9.434;2024-03-08T08:38:08;99593.56;;;3.36;67.08
16664;BME280;8445;51.270;9.434;2024-03-08T08:40:37;99615.84;;;3.61;66.37
16664;BME280;8445;51.270;9.434;2024-03-08T08:43:04;99617.59;;;3.70;66.01
16664;BME280;8445;51.270;9.434;2024-03-08T08:45:35;99608.28;;;3.75;66.22
16664;BME280;8445;51.270;9.434;2024-03-08T08:48:06;99616.41;;;3.92;65.94
16664;BME280;8445;51.270;9.434;2024-03-08T08:50:33;99599.03;;;3.99;65.24
16664;BME280;8445;51.270;9.434;2024-03-08T08:53:04;99588.91;;;4.04;64.52
16664;BME280;8445;51.270;9.434;2024-03-08T08:55:34;99598.94;;;4.18;64.91
16664;BME280;8445;51.270;9.434;2024-03-08T08:58:02;99575.53;;;4.15;64.81
16664;BME280;8445;51.270;9.434;2024-03-08T09:00:29;99580.44;;;4.28;64.74
16664;BME280;8445;51.270;9.434;2024-03-08T09:02:57;99583.47;;;4.33;64.74
16664;BME280;8445;51.270;9.434;2024-03-08T09:05:24;99564.19;;;4.32;64.66
16664;BME280;8445;51.270;9.434;2024-03-08T09:07:50;99574.38;;;4.45;64.55
16664;BME280;8445;51.270;9.434;2024-03-08T09:10:16;99572.09;;;4.50;64.49
16664;BME280;8445;51.270;9.434;2024-03-08T09:12:44;99562.94;;;4.54;64.35
16664;BME280;8445;51.270;9.434;2024-03-08T09:15:10;99564.47;;;4.65;64.74
16664;BME280;8445;51.270;9.434;2024-03-08T09:17:38;99563.59;;;4.74;64.32
16664;BME280;8445;51.270;9.434;2024-03-08T09:20:11;99552.56;;;4.79;63.61
16664;BME280;8445;51.270;9.434;2024-03-08T09:22:47;99554.31;;;4.88;63.81
16664;BME280;8445;51.270;9.434;2024-03-08T09:25:20;99552.84;;;4.93;64.04
16664;BME280;8445;51.270;9.434;2024-03-08T09:27:51;99541.38;;;5.02;64.15
16664;BME280;8445;51.270;9.434;2024-03-08T09:30:18;99537.00;;;5.11;63.98
16664;BME280;8445;51.270;9.434;2024-03-08T09:32:44;99504.09;;;4.97;63.44
16664;BME280;8445;51.270;9.434;2024-03-08T09:35:10;99534.78;;;5.24;62.82
16664;BME280;8445;51.270;9.434;2024-03-08T09:37:38;99525.72;;;5.27;63.11
16664;BME280;8445;51.270;9.434;2024-03-08T09:40:10;99518.69;;;5.36;62.74
16664;BME280;8445;51.270;9.434;2024-03-08T09:42:50;99490.25;;;5.29;62.22
16664;BME280;8445;51.270;9.434;2024-03-08T09:45:20;99511.00;;;5.50;61.77
16664;BME280;8445;51.270;9.434;2024-03-08T09:47:52;99490.53;;;5.52;61.05
16664;BME280;8445;51.270;9.434;2024-03-08T09:50:24;99491.25;;;5.62;60.93
16664;BME280;8445;51.270;9.434;2024-03-08T09:52:56;99487.13;;;5.68;60.83
16664;BME280;8445;51.270;9.434;2024-03-08T09:55:26;99473.59;;;5.71;60.77
16664;BME280;8445;51.270;9.434;2024-03-08T09:57:59;99482.41;;;5.88;60.71
16664;BME280;8445;51.270;9.434;2024-03-08T10:00:44;99479.66;;;5.98;60.96
16664;BME280;8445;51.270;9.434;2024-03-08T10:03:11;99478.03;;;6.05;61.16
16664;BME280;8445;51.270;9.434;2024-03-08T10:05:41;99466.78;;;6.11;61.01
16664;BME280;8445;51.270;9.434;2024-03-08T10:08:07;99472.28;;;6.26;59.34
16664;BME280;8445;51.270;9.434;2024-03-08T10:10:39;99445.31;;;6.22;59.12
16664;BME280;8445;51.270;9.434;2024-03-08T10:13:07;99446.00;;;6.32;59.49
16664;BME280;8445;51.270;9.434;2024-03-08T10:15:33;99428.47;;;6.31;59.25
16664;BME280;8445;51.270;9.434;2024-03-08T10:17:59;99456.44;;;6.58;58.67
16664;BME280;8445;51.270;9.434;2024-03-08T10:20:25;99448.63;;;6.65;58.24
16664;BME280;8445;51.270;9.434;2024-03-08T10:22:52;99434.41;;;6.66;59.01
16664;BME280;8445;51.270;9.434;2024-03-08T10:25:19;99435.06;;;6.76;58.66
16664;BME280;8445;51.270;9.434;2024-03-08T10:27:45;99428.78;;;6.77;57.26
16664;BME280;8445;51.270;9.434;2024-03-08T10:30:16;99437.03;;;6.90;57.82
16664;BME280;8445;51.270;9.434;2024-03-08T10:32:50;99422.50;;;6.86;56.63
16664;BME280;8445;51.270;9.434;2024-03-08T10:35:17;99424.13;;;6.95;56.27
16664;BME280;8445;51.270;9.434;2024-03-08T10:37:50;99411.22;;;7.00;57.12
16664;BME280;8445;51.270;9.434;2024-03-08T10:40:38;99420.28;;;7.14;57.44
16664;BME280;8445;51.270;9.434;2024-03-08T10:43:18;99412.13;;;7.24;56.78
16664;BME280;8445;51.270;9.434;2024-03-08T10:46:08;99423.19;;;7.35;56.32
16664;BME280;8445;51.270;9.434;2024-03-08T10:48:45;99425.44;;;7.47;56.31
16664;BME280;8445;51.270;9.434;2024-03-08T10:51:15;99431.38;;;7.57;55.96
16664;BME280;8445;51.270;9.434;2024-03-08T10:53:44;99435.16;;;7.62;55.94
16664;BME280;8445;51.270;9.434;2024-03-08T10:56:11;99432.47;;;7.70;55.63
16664;BME280;8445;51.270;9.434;2024-03-08T10:58:41;99411.25;;;7.70;54.96
16664;BME280;8445;51.270;9.434;2024-03-08T11:01:10;99415.16;;;7.83;55.33
16664;BME280;8445;51.270;9.434;2024-03-08T11:06:08;99411.28;;;7.93;55.39
16664;BME280;8445;51.270;9.434;2024-03-08T11:08:37;99405.16;;;7.93;55.30
16664;BME280;8445;51.270;9.434;2024-03-08T11:11:04;99401.09;;;8.05;55.50
16664;BME280;8445;51.270;9.434;2024-03-08T11:16:14;99386.44;;;8.17;54.88
16664;BME280;8445;51.270;9.434;2024-03-08T11:21:36;99372.06;;;8.26;52.46
16664;BME280;8445;51.270;9.434;2024-03-08T11:24:12;99383.34;;;8.28;53.26
16664;BME280;8445;51.270;9.434;2024-03-08T11:26:40;99375.19;;;8.15;52.44
16664;BME280;8445;51.270;9.434;2024-03-08T11:34:45;99350.75;;;7.97;53.15
16664;BME280;8445;51.270;9.434;2024-03-08T11:37:18;99362.50;;;8.03;53.45
16664;BME280;8445;51.270;9.434;2024-03-08T11:42:15;99360.31;;;8.06;53.65
16664;BME280;8445;51.270;9.434;2024-03-08T11:44:47;99345.91;;;8.00;52.42
16664;BME280;8445;51.270;9.434;2024-03-08T11:47:14;99357.34;;;8.01;52.41
16664;BME280;8445;51.270;9.434;2024-03-08T11:49:43;99327.63;;;7.91;53.30
16664;BME280;8445;51.270;9.434;2024-03-08T11:52:15;99344.41;;;8.06;53.10
16664;BME280;8445;51.270;9.434;2024-03-08T11:54:48;99345.78;;;8.02;53.07
16664;BME280;8445;51.270;9.434;2024-03-08T11:57:18;99317.53;;;7.86;53.47
16664;BME280;8445;51.270;9.434;2024-03-08T11:59:55;99319.47;;;7.92;54.13
16664;BME280;8445;51.270;9.434;2024-03-08T12:02:22;99332.66;;;8.00;54.08
16664;BME280;8445;51.270;9.434;2024-03-08T12:05:00;99329.94;;;8.09;54.00
16664;BME280;8445;51.270;9.434;2024-03-08T12:07:30;99306.97;;;8.01;54.24
16664;BME280;8445;51.270;9.434;2024-03-08T12:10:18;99330.06;;;8.15;53.91
16664;BME280;8445;51.270;9.434;2024-03-08T12:12:46;99312.22;;;8.09;54.00
16664;BME280;8445;51.270;9.434;2024-03-08T12:15:17;99312.16;;;8.17;53.96
16664;BME280;8445;51.270;9.434;2024-03-08T12:17:45;99293.28;;;8.12;54.59
16664;BME280;8445;51.270;9.434;2024-03-08T12:20:25;99320.84;;;8.26;54.19
16664;BME280;8445;51.270;9.434;2024-03-08T12:22:53;99301.16;;;8.20;53.91
16664;BME280;8445;51.270;9.434;2024-03-08T12:25:31;99301.09;;;8.28;54.00
16664;BME280;8445;51.270;9.434;2024-03-08T12:28:12;99299.72;;;8.33;53.60
16664;BME280;8445;51.270;9.434;2024-03-08T12:30:51;99286.16;;;8.27;53.69
16664;BME280;8445;51.270;9.434;2024-03-08T12:33:19;99294.44;;;8.33;53.45
16664;BME280;8445;51.270;9.434;2024-03-08T12:35:53;99295.09;;;8.35;54.25
16664;BME280;8445;51.270;9.434;2024-03-08T12:38:21;99293.91;;;8.37;54.17
16664;BME280;8445;51.270;9.434;2024-03-08T12:40:59;99274.19;;;8.32;53.59
16664;BME280;8445;51.270;9.434;2024-03-08T12:43:26;99271.22;;;8.35;53.89
16664;BME280;8445;51.270;9.434;2024-03-08T12:45:56;99286.06;;;8.44;54.22
16664;BME280;8445;51.270;9.434;2024-03-08T12:48:22;99280.38;;;8.47;54.11
16664;BME280;8445;51.270;9.434;2024-03-08T12:50:47;99282.47;;;8.51;53.96
16664;BME280;8445;51.270;9.434;2024-03-08T12:53:14;99272.34;;;8.55;54.04
16664;BME280;8445;51.270;9.434;2024-03-08T12:55:40;99267.66;;;8.57;54.12
16664;BME280;8445;51.270;9.434;2024-03-08T12:58:06;99263.53;;;8.54;54.09
16664;BME280;8445;51.270;9.434;2024-03-08T13:00:35;99253.09;;;8.53;53.94
16664;BME280;8445;51.270;9.434;2024-03-08T13:03:04;99260.41;;;8.66;54.23
16664;BME280;8445;51.270;9.434;2024-03-08T13:05:32;99241.56;;;8.61;54.20
16664;BME280;8445;51.270;9.434;2024-03-08T13:07:58;99246.41;;;8.72;54.14
16664;BME280;8445;51.270;9.434;2024-03-08T13:10:24;99247.69;;;8.76;53.43
16664;BME280;8445;51.270;9.434;2024-03-08T13:12:50;99241.56;;;8.75;53.37
16664;BME280;8445;51.270;9.434;2024-03-08T13:15:16;99228.03;;;8.70;54.01
16664;BME280;8445;51.270;9.434;2024-03-08T13:17:47;99213.56;;;8.73;54.38
16664;BME280;8445;51.270;9.434;2024-03-08T13:20:14;99231.91;;;8.89;54.30
16664;BME280;8445;51.270;9.434;2024-03-08T13:22:48;99220.47;;;8.88;53.87
16664;BME280;8445;51.270;9.434;2024-03-08T13:25:18;99220.09;;;8.92;53.71
16664;BME280;8445;51.270;9.434;2024-03-08T13:27:53;99217.34;;;9.00;53.03
16664;BME280;8445;51.270;9.434;2024-03-08T13:30:21;99210.19;;;9.00;52.78
16664;BME280;8445;51.270;9.434;2024-03-08T13:32:54;99214.06;;;8.98;53.40
16664;BME280;8445;51.270;9.434;2024-03-08T13:35:21;99214.69;;;9.00;52.98
16664;BME280;8445;51.270;9.434;2024-03-08T13:37:56;99216.13;;;9.02;52.69
16664;BME280;8445;51.270;9.434;2024-03-08T13:40:28;99195.50;;;9.04;52.63
16664;BME280;8445;51.270;9.434;2024-03-08T13:42:54;99184.06;;;9.04;52.78